Time;durP1;ratioP1;P1;durP2;ratioP2;P2;SDS_P1;SDS_P2;PMS_P1;PMS_P2;Temp;Humidity;BMP_temperature;BMP_pressure;BME280_temperature;BME280_humidity;BME280_pressure;Samples;Min_cycle;Max_cycle;Signal;HPM_P1;HPM_P2
2024/03/21 00:01:55;;;;;;;0.00;0.00;;;;;;;8.90;100.00;101051.56;6195195;22;20487;-78
2024/03/21 00:04:20;;;;;;;0.00;0.00;;;;;;;8.91;100.00;101050.50;6216344;22;20008;-81
2024/03/21 00:06:45;;;;;;;0.00;0.00;;;;;;;8.97;100.00;101058.81;6219326;22;20010;-79
2024/03/21 00:09:11;;;;;;;0.00;0.00;;;;;;;9.03;100.00;101074.19;6243567;22;20007;-79
2024/03/21 00:11:37;;;;;;;0.00;0.00;;;;;;;9.04;100.00;101087.59;6269390;22;20008;-78
2024/03/21 00:14:02;;;;;;;0.00;0.00;;;;;;;9.01;100.00;101087.22;6219835;22;20528;-77
2024/03/21 00:16:27;;;;;;;0.00;0.00;;;;;;;9.03;100.00;101102.31;6189696;22;20020;-78
2024/03/21 00:18:53;;;;;;;0.00;0.00;;;;;;;9.12;100.00;101110.94;6195099;22;20007;-80
2024/03/21 00:21:18;;;;;;;0.00;0.00;;;;;;;9.16;100.00;101106.69;6218169;22;20357;-78
2024/03/21 00:23:44;;;;;;;0.00;0.00;;;;;;;9.22;100.00;101105.72;6193013;22;20008;-78
2024/03/21 00:26:09;;;;;;;0.00;0.00;;;;;;;9.29;100.00;101110.19;6194665;22;20014;-79
2024/03/21 00:28:35;;;;;;;0.00;0.00;;;;;;;9.34;100.00;101099.41;6268342;22;20011;-79
2024/03/21 00:31:00;;;;;;;0.10;0.10;;;;;;;9.43;100.00;101106.97;6194422;22;20007;-79
2024/03/21 00:33:27;;;;;;;0.00;0.00;;;;;;;9.43;100.00;101106.13;6214684;22;20053;-81
2024/03/21 00:35:52;;;;;;;0.00;0.00;;;;;;;9.39;100.00;101110.44;6195222;22;20414;-79
2024/03/21 00:38:18;;;;;;;0.00;0.00;;;;;;;9.32;100.00;101098.84;6218011;22;20034;-79
2024/03/21 00:40:43;;;;;;;0.00;0.00;;;;;;;9.28;100.00;101097.66;6242895;22;20008;-80
2024/03/21 00:43:09;;;;;;;0.00;0.00;;;;;;;9.20;100.00;101099.69;6220352;22;20004;-80
2024/03/21 00:45:34;;;;;;;0.00;0.00;;;;;;;9.05;100.00;101082.97;6240865;22;20011;-78
2024/03/21 00:48:08;;;;;;;0.00;0.00;;;;;;;9.06;100.00;101106.47;6220968;22;20095;-79
2024/03/21 00:50:36;;;;;;;0.00;0.00;;;;;;;9.03;100.00;101106.94;6188848;22;20111;-78
2024/03/21 00:53:01;;;;;;;0.00;0.00;;;;;;;9.04;100.00;101122.25;6219104;22;20418;-77
2024/03/21 00:55:27;;;;;;;0.10;0.10;;;;;;;9.00;100.00;101118.34;6219150;22;20034;-78
2024/03/21 00:57:52;;;;;;;0.00;0.00;;;;;;;8.96;100.00;101117.16;6241286;22;20012;-78
2024/03/21 01:00:18;;;;;;;0.00;0.00;;;;;;;8.99;100.00;101133.03;6219498;22;20419;-78
2024/03/21 01:02:43;;;;;;;0.00;0.00;;;;;;;8.96;100.00;101133.50;6215449;22;20015;-79
2024/03/21 01:05:11;;;;;;;0.00;0.00;;;;;;;9.00;100.00;101137.44;6219752;22;20506;-78
2024/03/21 01:07:37;;;;;;;0.00;0.00;;;;;;;8.97;100.00;101135.19;6242779;22;20061;-79
2024/03/21 01:10:03;;;;;;;0.00;0.00;;;;;;;8.97;100.00;101146.09;6219212;22;20015;-78
2024/03/21 01:12:28;;;;;;;0.00;0.00;;;;;;;8.88;100.00;101127.34;6243431;22;20415;-79
2024/03/21 01:14:53;;;;;;;0.00;0.00;;;;;;;8.96;100.00;101133.50;6268053;22;20034;-77
2024/03/21 01:17:19;;;;;;;0.00;0.00;;;;;;;8.85;100.00;101124.28;6244864;22;20000;-79
2024/03/21 01:19:44;;;;;;;0.00;0.00;;;;;;;8.96;100.00;101136.25;6216756;22;20015;-78
2024/03/21 01:22:10;;;;;;;0.00;0.00;;;;;;;8.93;100.00;101139.44;6243338;22;20012;-79
2024/03/21 01:24:35;;;;;;;0.00;0.00;;;;;;;8.87;100.00;101131.13;6218858;22;20422;-80
2024/03/21 01:27:01;;;;;;;0.00;0.00;;;;;;;8.94;100.00;101135.66;6216371;22;20003;-79
2024/03/21 01:29:26;;;;;;;0.00;0.00;;;;;;;8.93;100.00;101134.00;6245321;22;20050;-79
2024/03/21 01:31:52;;;;;;;0.00;0.00;;;;;;;8.97;100.00;101135.19;6241016;22;20030;-78
2024/03/21 01:34:17;;;;;;;0.00;0.00;;;;;;;9.03;100.00;101139.69;6243811;22;20008;-78
2024/03/21 01:36:46;;;;;;;0.00;0.00;;;;;;;9.05;100.00;101141.09;6243685;22;20380;-78
2024/03/21 01:39:13;;;;;;;0.00;0.00;;;;;;;9.02;100.00;101132.56;6219729;22;20007;-79
2024/03/21 01:41:39;;;;;;;0.00;0.00;;;;;;;9.06;100.00;101128.28;6243111;22;20011;-79
2024/03/21 01:44:04;;;;;;;0.00;0.00;;;;;;;9.28;100.00;101146.78;6242392;22;20010;-78
2024/03/21 01:46:30;;;;;;;0.00;0.00;;;;;;;9.39;100.00;101140.47;6244050;22;20034;-78
2024/03/21 01:48:56;;;;;;;0.00;0.00;;;;;;;9.51;100.00;101146.72;6216733;22;20012;-78
2024/03/21 01:51:24;;;;;;;0.00;0.00;;;;;;;9.60;100.00;101134.34;6194243;22;20054;-78
2024/03/21 01:53:51;;;;;;;0.10;0.10;;;;;;;9.75;100.00;101146.66;6245273;22;20098;-79
2024/03/21 01:56:17;;;;;;;0.00;0.00;;;;;;;9.89;100.00;101158.94;6216210;22;20003;-79
2024/03/21 01:58:43;;;;;;;0.00;0.00;;;;;;;10.03;100.00;101158.66;6244361;22;20038;-78
2024/03/21 02:01:25;;;;;;;0.00;0.00;;;;;;;10.16;100.00;101165.72;6268427;22;20700;-79
2024/03/21 02:03:52;;;;;;;0.00;0.00;;;;;;;10.25;100.00;101154.16;6243249;22;20610;-80
2024/03/21 02:06:19;;;;;;;0.00;0.00;;;;;;;10.29;100.00;101155.31;6240343;22;20018;-79
2024/03/21 02:08:44;;;;;;;0.00;0.00;;;;;;;10.42;100.00;101164.31;6243943;22;20418;-80
2024/03/21 02:11:11;;;;;;;0.00;0.00;;;;;;;10.44;100.00;101149.31;6214555;22;20016;-79
2024/03/21 02:13:36;;;;;;;0.00;0.00;;;;;;;10.59;100.00;101169.81;6218817;22;20361;-77
2024/03/21 02:16:02;;;;;;;0.00;0.00;;;;;;;10.62;100.00;101166.56;6217008;22;20079;-79
2024/03/21 02:18:27;;;;;;;0.00;0.00;;;;;;;10.69;100.00;101166.38;6240309;22;20081;-79
2024/03/21 02:20:53;;;;;;;0.00;0.00;;;;;;;10.71;100.00;101164.25;6218731;22;20341;-79
2024/03/21 02:23:18;;;;;;;0.00;0.00;;;;;;;10.82;100.00;101160.59;6188482;22;20483;-79
2024/03/21 02:25:44;;;;;;;0.00;0.00;;;;;;;10.91;100.00;101167.31;6219456;22;20004;-79
2024/03/21 02:28:09;;;;;;;0.00;0.00;;;;;;;10.95;100.00;101164.88;6241476;22;20019;-79
2024/03/21 02:30:44;;;;;;;0.00;0.00;;;;;;;11.04;100.00;101165.28;6217469;22;20039;-79
2024/03/21 02:33:09;;;;;;;0.00;0.00;;;;;;;11.08;100.00;101174.66;6242567;22;20003;-80
2024/03/21 02:35:35;;;;;;;0.00;0.00;;;;;;;11.13;100.00;101172.00;6240856;22;20090;-78
2024/03/21 02:38:00;;;;;;;0.00;0.00;;;;;;;11.19;100.00;101176.47;6219719;22;20456;-80
2024/03/21 02:40:25;;;;;;;0.00;0.00;;;;;;;11.12;100.00;101160.22;6189717;22;20019;-79
2024/03/21 02:42:56;;;;;;;0.00;0.00;;;;;;;11.17;100.00;101164.97;6219918;22;20004;-74
2024/03/21 02:45:21;;;;;;;0.00;0.00;;;;;;;11.14;100.00;101157.22;6215678;22;20803;-74
2024/03/21 02:47:47;;;;;;;0.00;0.00;;;;;;;11.24;100.00;101164.75;6271371;22;20031;-74
2024/03/21 02:50:12;;;;;;;0.00;0.00;;;;;;;10.98;100.00;101143.34;6269986;22;20043;-73
2024/03/21 02:52:38;;;;;;;0.00;0.00;;;;;;;10.81;100.00;101153.47;6241407;22;20007;-73
2024/03/21 02:55:03;;;;;;;0.00;0.00;;;;;;;10.54;100.00;101154.16;6216379;22;20034;-72
2024/03/21 02:57:29;;;;;;;0.00;0.00;;;;;;;10.19;100.00;101141.47;6190356;22;20067;-72
2024/03/21 02:59:54;;;;;;;0.00;0.00;;;;;;;9.98;100.00;101144.91;6218541;22;20012;-73
2024/03/21 03:02:20;;;;;;;0.00;0.00;;;;;;;9.76;100.00;101151.03;6191896;22;20049;-73
2024/03/21 03:04:45;;;;;;;0.00;0.00;;;;;;;9.59;100.00;101157.28;6190477;22;20008;-75
2024/03/21 03:07:11;;;;;;;0.00;0.00;;;;;;;9.45;100.00;101161.34;6217404;22;20462;-72
2024/03/21 03:09:36;;;;;;;0.00;0.00;;;;;;;9.33;100.00;101166.81;6213812;22;20012;-73
2024/03/21 03:12:02;;;;;;;0.03;0.03;;;;;;;9.23;100.00;101161.13;6244190;22;20010;-74
2024/03/21 03:14:27;;;;;;;0.00;0.00;;;;;;;9.14;100.00;101168.88;6214762;22;20807;-73
2024/03/21 03:16:53;;;;;;;0.00;0.00;;;;;;;9.12;100.00;101176.44;6191479;22;20432;-73
2024/03/21 03:19:18;;;;;;;0.00;0.00;;;;;;;9.06;100.00;101161.84;6194176;22;20014;-74
2024/03/21 03:21:44;;;;;;;0.00;0.00;;;;;;;9.05;100.00;101162.09;6240094;22;20121;-77
2024/03/21 03:24:09;;;;;;;0.00;0.00;;;;;;;8.98;100.00;101164.94;6218383;22;20008;-80
2024/03/21 03:26:34;;;;;;;0.00;0.00;;;;;;;8.98;100.00;101175.84;6217634;22;20034;-79
2024/03/21 03:29:00;;;;;;;0.00;0.00;;;;;;;8.71;100.00;101146.28;6245738;22;20007;-80
2024/03/21 03:31:26;;;;;;;0.00;0.00;;;;;;;8.88;100.00;101183.81;6221683;22;20011;-79
2024/03/21 03:36:36;;;;;;;0.00;0.00;;;;;;;8.78;100.00;101170.75;6269102;22;20017;-81
2024/03/21 03:39:01;;;;;;;0.00;0.00;;;;;;;8.80;100.00;101174.06;6270486;22;20000;-79
2024/03/21 03:41:27;;;;;;;0.00;0.00;;;;;;;8.68;100.00;101159.59;6221026;22;20019;-79
2024/03/21 03:43:52;;;;;;;0.10;0.10;;;;;;;8.71;100.00;101170.03;6216971;22;20050;-78
2024/03/21 03:46:18;;;;;;;0.00;0.00;;;;;;;8.78;100.00;101175.38;6195217;22;20083;-81
2024/03/21 03:48:43;;;;;;;0.00;0.00;;;;;;;8.78;100.00;101169.91;6215463;22;20022;-73
2024/03/21 03:51:08;;;;;;;0.00;0.00;;;;;;;8.75;100.00;101160.31;6182180;22;20446;-74
2024/03/21 03:53:34;;;;;;;0.00;0.00;;;;;;;8.84;100.00;101174.44;6219455;22;20473;-75
2024/03/21 03:55:59;;;;;;;0.00;0.00;;;;;;;8.84;100.00;101172.53;6240901;22;20004;-75
2024/03/21 03:58:25;;;;;;;0.00;0.00;;;;;;;8.86;100.00;101173.13;6245273;22;20334;-74
2024/03/21 04:01:01;;;;;;;0.00;0.00;;;;;;;8.82;100.00;101171.94;6217140;22;20014;-74
2024/03/21 04:03:28;;;;;;;0.00;0.00;;;;;;;8.81;100.00;101181.19;6244116;22;20418;-74
2024/03/21 04:06:03;;;;;;;0.00;0.00;;;;;;;8.82;100.00;101182.84;6241869;22;20026;-74
2024/03/21 04:08:29;;;;;;;0.00;0.00;;;;;;;8.82;100.00;101185.56;6241243;22;20031;-77
2024/03/21 04:10:56;;;;;;;0.00;0.00;;;;;;;8.74;100.00;101172.28;6239869;22;20014;-73
2024/03/21 04:13:22;;;;;;;0.00;0.00;;;;;;;8.84;100.00;101186.16;6246312;22;20051;-80
2024/03/21 04:15:54;;;;;;;0.00;0.00;;;;;;;8.76;100.00;101170.16;6245575;22;20004;-80
2024/03/21 04:18:20;;;;;;;0.00;0.00;;;;;;;8.73;100.00;101173.31;6216838;22;20010;-79
2024/03/21 04:20:45;;;;;;;0.00;0.00;;;;;;;8.76;100.00;101183.78;6245153;22;19995;-78
2024/03/21 04:23:11;;;;;;;0.00;0.00;;;;;;;8.81;100.00;101185.81;6215274;22;20137;-78
2024/03/21 04:25:36;;;;;;;0.00;0.00;;;;;;;8.73;100.00;101179.63;6243988;22;20003;-79
2024/03/21 04:28:02;;;;;;;0.00;0.00;;;;;;;8.74;100.00;101188.63;6218297;22;20085;-79
2024/03/21 04:30:27;;;;;;;0.00;0.00;;;;;;;8.77;100.00;101193.63;6217369;22;20004;-77
2024/03/21 04:32:53;;;;;;;0.00;0.00;;;;;;;8.66;100.00;101176.19;6217291;22;20007;-78
2024/03/21 04:35:18;;;;;;;0.00;0.00;;;;;;;8.59;100.00;101180.09;6217847;22;20012;-79
2024/03/21 04:37:44;;;;;;;0.00;0.00;;;;;;;8.61;100.00;101191.59;6219749;22;20008;-79
2024/03/21 04:40:09;;;;;;;0.00;0.00;;;;;;;8.55;100.00;101199.63;6241057;22;20430;-79
2024/03/21 04:42:35;;;;;;;0.00;0.00;;;;;;;8.47;100.00;101197.25;6219646;22;20497;-79
2024/03/21 04:45:00;;;;;;;0.00;0.00;;;;;;;8.40;100.00;101207.38;6217577;22;20087;-79
2024/03/21 04:47:25;;;;;;;0.00;0.00;;;;;;;8.31;100.00;101206.03;6241833;22;20311;-79
2024/03/21 04:49:54;;;;;;;0.05;0.05;;;;;;;8.15;100.00;101194.75;6272522;22;20007;-78
2024/03/21 04:52:20;;;;;;;0.00;0.00;;;;;;;8.39;100.00;101216.63;6242652;22;20034;-77
2024/03/21 04:54:49;;;;;;;0.00;0.00;;;;;;;8.41;100.00;101203.59;6219233;22;20008;-78
2024/03/21 04:57:15;;;;;;;0.00;0.00;;;;;;;8.39;100.00;101184.72;6217172;22;20038;-78
2024/03/21 04:59:41;;;;;;;0.00;0.00;;;;;;;8.41;100.00;101187.25;6244057;22;20423;-79
2024/03/21 05:02:06;;;;;;;0.00;0.00;;;;;;;8.30;100.00;101185.31;6242651;22;20035;-79
2024/03/21 05:04:31;;;;;;;0.00;0.00;;;;;;;8.19;100.00;101190.50;6244962;22;20122;-79
2024/03/21 05:06:57;;;;;;;0.00;0.00;;;;;;;8.13;100.00;101202.31;6269240;22;20008;-80
2024/03/21 05:09:25;;;;;;;0.10;0.10;;;;;;;8.05;100.00;101189.00;6219409;22;20016;-78
2024/03/21 05:11:50;;;;;;;0.00;0.00;;;;;;;7.98;100.00;101182.81;6268604;22;20081;-79
2024/03/21 05:14:15;;;;;;;0.00;0.00;;;;;;;7.83;100.00;101181.31;6218560;22;20011;-79
2024/03/21 05:16:41;;;;;;;0.00;0.00;;;;;;;7.84;100.00;101196.63;6217611;22;20014;-76
2024/03/21 05:19:06;;;;;;;0.00;0.00;;;;;;;7.75;100.00;101206.13;6216477;22;20094;-76
2024/03/21 05:21:32;;;;;;;0.00;0.00;;;;;;;7.61;100.00;101199.22;6244806;22;20139;-77
2024/03/21 05:23:57;;;;;;;0.00;0.00;;;;;;;7.60;100.00;101205.72;6192030;22;20018;-75
2024/03/21 05:26:23;;;;;;;0.10;0.10;;;;;;;7.53;100.00;101202.22;6242939;22;20018;-73
2024/03/21 05:28:49;;;;;;;0.00;0.00;;;;;;;7.55;100.00;101219.16;6191587;22;20007;-72
2024/03/21 05:31:22;;;;;;;0.00;0.00;;;;;;;7.53;100.00;101229.44;6216417;22;20683;-74
2024/03/21 05:33:48;;;;;;;0.00;0.00;;;;;;;7.45;100.00;101223.25;6241223;22;20000;-73
2024/03/21 05:36:16;;;;;;;0.00;0.00;;;;;;;7.45;100.00;101230.59;6216134;22;20062;-72
2024/03/21 05:38:45;;;;;;;0.00;0.00;;;;;;;7.45;100.00;101234.13;6270750;22;20000;-78
2024/03/21 05:41:10;;;;;;;0.00;0.00;;;;;;;7.37;100.00;101226.25;6215667;22;20088;-77
2024/03/21 05:43:37;;;;;;;0.00;0.00;;;;;;;7.38;100.00;101230.63;6219395;22;20448;-77
2024/03/21 05:46:02;;;;;;;0.00;0.00;;;;;;;7.35;100.00;101225.66;6269110;22;20030;-78
2024/03/21 05:48:28;;;;;;;0.10;0.10;;;;;;;7.45;100.00;101244.19;6242172;22;20004;-77
2024/03/21 05:50:53;;;;;;;0.00;0.00;;;;;;;7.43;100.00;101233.53;6216569;22;20057;-78
2024/03/21 05:53:19;;;;;;;0.00;0.00;;;;;;;7.41;100.00;101230.19;6216704;22;20010;-79
2024/03/21 05:56:04;;;;;;;0.00;0.00;;;;;;;7.48;100.00;101232.84;6243943;22;20013;-81
2024/03/21 05:58:30;;;;;;;0.00;0.00;;;;;;;7.50;100.00;101231.56;6242589;22;20007;-78
2024/03/21 06:03:31;;;;;;;0.00;0.00;;;;;;;7.63;100.00;101232.47;6280186;22;20003;-80
2024/03/21 06:05:57;;;;;;;0.00;0.00;;;;;;;7.66;100.00;101223.84;6219750;22;20037;-79
2024/03/21 06:08:22;;;;;;;0.00;0.00;;;;;;;7.81;100.00;101227.03;6242052;22;20433;-80
2024/03/21 06:10:48;;;;;;;0.00;0.00;;;;;;;7.93;100.00;101228.97;6243118;22;20091;-81
2024/03/21 06:13:14;;;;;;;0.03;0.03;;;;;;;8.06;100.00;101247.88;6217379;22;20090;-81
2024/03/21 06:15:39;;;;;;;0.00;0.00;;;;;;;8.19;100.00;101244.13;6269475;22;20004;-79
2024/03/21 06:18:04;;;;;;;0.00;0.00;;;;;;;8.34;100.00;101254.66;6243953;22;20004;-79
2024/03/21 06:20:30;;;;;;;0.00;0.00;;;;;;;8.46;100.00;101249.28;6242846;22;20050;-77
2024/03/21 06:22:55;;;;;;;0.00;0.00;;;;;;;8.59;100.00;101259.97;6242892;22;20418;-77
2024/03/21 06:25:21;;;;;;;0.00;0.00;;;;;;;8.65;100.00;101260.94;6242797;22;20315;-79
2024/03/21 06:27:48;;;;;;;0.10;0.10;;;;;;;8.76;100.00;101257.44;6218199;22;20445;-78
2024/03/21 06:30:14;;;;;;;0.00;0.00;;;;;;;8.85;100.00;101263.38;6242452;22;20089;-77
2024/03/21 06:32:40;;;;;;;0.00;0.00;;;;;;;8.94;100.00;101269.31;6215975;22;20007;-78
2024/03/21 06:35:05;;;;;;;0.10;0.10;;;;;;;8.99;100.00;101269.44;6243470;22;20082;-81
2024/03/21 06:37:31;;;;;;;0.00;0.00;;;;;;;9.06;100.00;101270.16;6271291;22;20006;-79
2024/03/21 06:39:58;;;;;;;0.00;0.00;;;;;;;9.12;100.00;101263.75;6192272;22;20007;-80
2024/03/21 06:42:23;;;;;;;0.00;0.00;;;;;;;9.19;100.00;101269.94;6216908;22;20103;-81
2024/03/21 06:44:49;;;;;;;0.00;0.00;;;;;;;9.31;100.00;101277.31;6214929;22;20839;-79
2024/03/21 06:47:14;;;;;;;0.00;0.00;;;;;;;9.26;100.00;101259.72;6217038;22;20010;-80
2024/03/21 06:49:43;;;;;;;0.00;0.00;;;;;;;9.49;100.00;101285.38;6240855;22;20008;-78
2024/03/21 06:52:08;;;;;;;0.10;0.10;;;;;;;9.49;100.00;101274.47;6216030;22;20450;-78
2024/03/21 06:54:34;;;;;;;0.00;0.00;;;;;;;9.65;100.00;101285.72;6243946;22;20019;-79
2024/03/21 06:57:07;;;;;;;0.00;0.00;;;;;;;9.60;100.00;101262.69;6188569;22;20338;-72
2024/03/21 06:59:35;;;;;;;0.00;0.00;;;;;;;9.73;100.00;101258.06;6240112;22;20006;-74
2024/03/21 07:02:00;;;;;;;0.00;0.00;;;;;;;9.86;100.00;101274.16;6240367;22;19996;-73
2024/03/21 07:04:34;;;;;;;0.00;0.00;;;;;;;9.94;100.00;101276.53;6267690;22;20106;-73
2024/03/21 07:06:59;;;;;;;0.00;0.00;;;;;;;10.13;100.00;101296.34;6242210;22;19999;-72
2024/03/21 07:09:25;;;;;;;0.00;0.00;;;;;;;10.22;100.00;101299.53;6268977;22;20012;-72
2024/03/21 07:11:50;;;;;;;0.00;0.00;;;;;;;10.26;100.00;101308.88;6217806;22;20008;-73
2024/03/21 07:14:16;;;;;;;0.00;0.00;;;;;;;10.30;100.00;101307.31;6242687;22;20000;-73
2024/03/21 07:16:41;;;;;;;0.00;0.00;;;;;;;10.39;100.00;101309.72;6216161;22;20093;-76
2024/03/21 07:19:07;;;;;;;0.00;0.00;;;;;;;10.41;100.00;101313.03;6191421;22;20035;-75
2024/03/21 07:21:33;;;;;;;0.10;0.10;;;;;;;10.40;100.00;101308.66;6242092;22;20015;-73
2024/03/21 07:23:58;;;;;;;0.00;0.00;;;;;;;10.47;100.00;101314.81;6243664;22;20007;-75
2024/03/21 07:26:28;;;;;;;0.00;0.00;;;;;;;10.39;100.00;101310.53;6215844;22;20018;-75
2024/03/21 07:28:56;;;;;;;0.00;0.00;;;;;;;10.39;100.00;101307.81;6242225;22;20004;-72
2024/03/21 07:31:22;;;;;;;0.00;0.00;;;;;;;10.44;100.00;101312.53;6217695;22;20055;-73
2024/03/21 07:33:51;;;;;;;0.00;0.00;;;;;;;10.42;100.00;101304.56;6242052;22;20019;-73
2024/03/21 07:36:18;;;;;;;0.00;0.00;;;;;;;10.55;100.00;101333.53;6242165;22;20701;-73
2024/03/21 07:38:44;;;;;;;0.00;0.00;;;;;;;10.41;100.00;101329.44;6268931;22;20034;-75
2024/03/21 07:41:09;;;;;;;0.00;0.00;;;;;;;10.38;100.00;101346.31;6242783;22;20352;-74
2024/03/21 07:43:35;;;;;;;0.00;0.00;;;;;;;10.26;100.00;101347.16;6215514;22;20007;-73
2024/03/21 07:46:08;;;;;;;0.00;0.00;;;;;;;10.18;100.00;101352.16;6244150;22;20008;-74
2024/03/21 07:48:33;;;;;;;0.00;0.00;;;;;;;10.15;100.00;101348.03;6196214;22;20035;-74
2024/03/21 07:51:01;;;;;;;0.00;0.00;;;;;;;10.10;100.00;101336.97;6241244;22;20101;-75
2024/03/21 07:53:26;;;;;;;0.00;0.00;;;;;;;10.16;100.00;101346.13;6241725;22;20030;-74
2024/03/21 07:55:53;;;;;;;0.00;0.00;;;;;;;10.20;100.00;101339.91;6217688;22;20783;-74
2024/03/21 07:58:50;;;;;;;0.00;0.00;;;;;;;10.22;100.00;101331.47;6216446;22;20026;-75
2024/03/21 08:01:21;;;;;;;0.00;0.00;;;;;;;10.39;100.00;101337.06;6228113;22;20034;-76
2024/03/21 08:04:15;;;;;;;0.00;0.00;;;;;;;10.41;100.00;101318.50;6268061;22;20035;-75
2024/03/21 08:06:45;;;;;;;0.00;0.00;;;;;;;10.61;100.00;101340.78;6228064;22;20789;-77
2024/03/21 08:09:26;;;;;;;;;;;;;;;;;;;;;
2024/03/21 08:12:00;;;;;;;0.00;0.00;;;;;;;10.76;100.00;101336.66;6269346;22;20098;-74
2024/03/21 08:14:28;;;;;;;0.00;0.00;;;;;;;10.91;100.00;101356.13;6242762;22;20322;-74
2024/03/21 08:19:50;;;;;;;0.00;0.00;;;;;;;11.05;100.00;101322.97;6249667;22;20068;-74
2024/03/21 08:22:16;;;;;;;0.00;0.00;;;;;;;11.21;100.00;101316.66;6243400;22;20363;-74
2024/03/21 08:24:42;;;;;;;0.00;0.00;;;;;;;11.42;100.00;101330.69;6265099;22;20003;-72
2024/03/21 08:27:22;;;;;;;;;;;;;;;;;;;;;
2024/03/21 08:29:53;;;;;;;0.00;0.00;;;;;;;11.73;100.00;101331.19;6243097;22;20102;-74
2024/03/21 08:32:38;;;;;;;0.00;0.00;;;;;;;11.71;100.00;101317.72;6239016;22;20045;-74
2024/03/21 08:35:05;;;;;;;0.00;0.00;;;;;;;11.93;100.00;101360.75;6215571;22;20385;-74
2024/03/21 08:37:45;;;;;;;0.00;0.00;;;;;;;11.76;100.00;101319.72;6214669;22;20007;-75
2024/03/21 08:40:13;;;;;;;0.00;0.00;;;;;;;11.78;100.00;101326.56;6243603;22;20023;-75
2024/03/21 08:42:48;;;;;;;0.00;0.00;;;;;;;11.76;100.00;101323.25;6218382;22;20012;-74
2024/03/21 08:45:14;;;;;;;0.00;0.00;;;;;;;11.75;100.00;101321.59;6244582;22;20000;-74
2024/03/21 08:47:47;;;;;;;0.00;0.00;;;;;;;11.82;100.00;101321.44;6241842;22;20010;-75
2024/03/21 08:50:15;;;;;;;0.00;0.00;;;;;;;11.91;100.00;101335.53;6269000;22;20076;-74
2024/03/21 08:52:41;;;;;;;0.00;0.00;;;;;;;11.98;100.00;101348.00;6243209;22;20145;-74
2024/03/21 08:55:20;;;;;;;0.00;0.00;;;;;;;12.15;100.00;101360.81;6234006;22;20376;-74
2024/03/21 08:58:00;;;;;;;;;;;;;;;;;;;;;
2024/03/21 09:00:32;;;;;;;0.00;0.00;;;;;;;12.07;100.00;101328.38;6262865;22;20947;-75
2024/03/21 09:03:12;;;;;;;;;;;;;;;;;;;;;
2024/03/21 09:05:37;;;;;;;0.00;0.00;;;;;;;12.13;100.00;101327.34;6270406;22;20082;-75
2024/03/21 09:08:03;;;;;;;0.00;0.00;;;;;;;12.29;100.00;101331.94;6271420;22;20042;-74
2024/03/21 09:10:29;;;;;;;0.00;0.00;;;;;;;12.81;100.00;101370.97;6223704;22;20043;-74
2024/03/21 09:12:54;;;;;;;0.00;0.00;;;;;;;12.94;100.00;101373.31;6270111;22;20682;-75
2024/03/21 09:15:20;;;;;;;0.00;0.00;;;;;;;13.13;100.00;101394.88;6245420;22;20095;-74
2024/03/21 09:17:45;;;;;;;0.00;0.00;;;;;;;13.24;100.00;101374.66;6242187;22;20007;-74
2024/03/21 09:20:11;;;;;;;0.00;0.00;;;;;;;13.56;99.16;101401.34;6243048;22;20087;-75
2024/03/21 09:22:39;;;;;;;0.00;0.00;;;;;;;13.37;97.29;101378.94;6266699;22;20481;-75
2024/03/21 09:25:16;;;;;;;;;;;;;;;;;;;;;
2024/03/21 09:27:42;;;;;;;0.00;0.00;;;;;;;12.86;97.41;101384.72;6267391;22;20576;-76
2024/03/21 09:30:07;;;;;;;0.00;0.00;;;;;;;12.88;98.95;101383.38;6243581;22;20027;-75
2024/03/21 09:32:35;;;;;;;0.00;0.00;;;;;;;13.34;99.29;101407.75;6242318;22;20426;-75
2024/03/21 09:35:01;;;;;;;0.00;0.00;;;;;;;13.36;96.76;101366.28;6218065;22;20004;-75
2024/03/21 09:37:27;;;;;;;0.00;0.00;;;;;;;13.73;94.65;101391.03;6244588;22;20011;-74
2024/03/21 09:39:52;;;;;;;0.00;0.00;;;;;;;13.86;93.42;101386.19;6218494;22;20004;-75
2024/03/21 09:42:20;;;;;;;0.00;0.00;;;;;;;14.25;91.96;101377.59;6242069;22;20004;-75
2024/03/21 09:44:48;;;;;;;0.10;0.10;;;;;;;14.94;89.80;101394.97;6215129;22;20494;-75
2024/03/21 09:47:27;;;;;;;0.00;0.00;;;;;;;15.19;84.29;101406.03;6216725;22;20057;-75
2024/03/21 09:50:09;;;;;;;;;;;;;;;;;;;;;
2024/03/21 09:52:44;;;;;;;;;;;;;;;;;;;;;
2024/03/21 09:55:16;;;;;;;0.03;0.03;;;;;;;14.91;84.02;101412.00;6267300;22;20074;-76
2024/03/21 09:57:44;;;;;;;0.00;0.00;;;;;;;14.60;84.44;101395.38;6270492;22;20010;-75
2024/03/21 10:00:12;;;;;;;0.00;0.00;;;;;;;14.68;84.97;101402.34;6240697;22;20010;-76
2024/03/21 10:02:40;;;;;;;0.00;0.00;;;;;;;14.97;84.93;101400.75;6247269;22;20092;-74
2024/03/21 10:05:18;;;;;;;;;;;;;;;;;;;;;
2024/03/21 10:07:49;;;;;;;0.00;0.00;;;;;;;15.67;81.89;101427.03;6269380;22;20079;-75
2024/03/21 10:10:18;;;;;;;0.00;0.00;;;;;;;15.79;80.30;101405.53;6269654;22;20474;-74
2024/03/21 10:12:46;;;;;;;0.00;0.00;;;;;;;15.54;79.56;101409.09;6242195;22;20000;-76
2024/03/21 10:15:13;;;;;;;0.00;0.00;;;;;;;15.14;80.65;101395.00;6216567;22;20358;-75
2024/03/21 10:17:41;;;;;;;0.00;0.00;;;;;;;14.87;81.69;101402.66;6217435;22;20000;-74
2024/03/21 10:20:09;;;;;;;0.00;0.00;;;;;;;14.64;82.13;101419.34;6245498;22;20303;-75
2024/03/21 10:22:34;;;;;;;0.00;0.00;;;;;;;14.55;84.75;101442.97;6237857;22;20430;-74
2024/03/21 10:25:12;;;;;;;0.00;0.00;;;;;;;14.52;85.66;101431.69;6244554;22;20054;-74
2024/03/21 10:27:39;;;;;;;0.00;0.00;;;;;;;14.32;85.71;101395.53;6218825;22;20075;-76
2024/03/21 10:30:15;;;;;;;0.00;0.00;;;;;;;14.16;85.57;101407.53;6271971;22;20051;-75
2024/03/21 10:32:54;;;;;;;;;;;;;;;;;;;;;
2024/03/21 10:35:32;;;;;;;0.00;0.00;;;;;;;13.99;87.83;101401.38;6246438;22;20090;-75
2024/03/21 10:37:57;;;;;;;0.00;0.00;;;;;;;14.10;87.71;101419.63;6268964;22;19996;-75
2024/03/21 10:40:25;;;;;;;0.00;0.00;;;;;;;14.15;87.31;101405.91;6242181;22;20018;-74
2024/03/21 10:42:59;;;;;;;0.00;0.00;;;;;;;14.22;87.21;101406.50;6214526;22;20073;-71
2024/03/21 10:45:28;;;;;;;0.00;0.00;;;;;;;14.41;86.93;101398.63;6243610;22;19995;-74
2024/03/21 10:47:57;;;;;;;0.00;0.00;;;;;;;14.73;85.29;101394.06;6239851;22;20003;-75
2024/03/21 10:50:23;;;;;;;0.00;0.00;;;;;;;14.70;84.02;101428.47;6217869;22;20027;-74
2024/03/21 10:52:51;;;;;;;0.00;0.00;;;;;;;14.65;85.08;101421.03;6219810;22;20635;-74
2024/03/21 10:55:18;;;;;;;0.00;0.00;;;;;;;14.60;84.65;101414.63;6238674;22;20330;-75
2024/03/21 10:58:14;;;;;;;0.00;0.00;;;;;;;14.73;84.15;101425.19;6216248;22;20022;-76
2024/03/21 11:00:53;;;;;;;0.00;0.00;;;;;;;14.69;83.80;101382.78;6221291;22;20097;-74
2024/03/21 11:03:19;;;;;;;0.00;0.00;;;;;;;15.11;83.84;101401.06;6264705;22;20003;-74
2024/03/21 11:05:48;;;;;;;0.00;0.00;;;;;;;15.63;81.71;101401.91;6217302;22;20307;-75
2024/03/21 11:08:30;;;;;;;0.00;0.00;;;;;;;15.99;79.30;101381.75;6271209;22;20077;-73
2024/03/21 11:11:05;;;;;;;0.00;0.00;;;;;;;16.33;76.67;101412.31;6241441;22;20008;-73
2024/03/21 11:13:33;;;;;;;0.00;0.00;;;;;;;16.09;74.47;101408.50;6240076;22;20000;-74
2024/03/21 11:15:58;;;;;;;0.00;0.00;;;;;;;15.67;75.71;101413.25;6266415;22;20074;-73
2024/03/21 11:18:26;;;;;;;0.00;0.00;;;;;;;15.54;77.22;101401.63;6193154;22;20086;-74
2024/03/21 11:20:52;;;;;;;0.00;0.00;;;;;;;15.81;77.39;101406.09;6215364;22;20034;-73
2024/03/21 11:23:17;;;;;;;0.00;0.00;;;;;;;16.50;75.40;101412.00;6242452;22;20000;-74
2024/03/21 11:25:43;;;;;;;0.00;0.00;;;;;;;17.09;73.64;101428.84;6216599;22;20042;-73
2024/03/21 11:28:12;;;;;;;0.00;0.00;;;;;;;17.90;71.05;101412.78;6241910;22;20010;-73
2024/03/21 11:30:44;;;;;;;0.00;0.00;;;;;;;18.81;65.01;101413.94;6216442;22;20490;-74
2024/03/21 11:33:10;;;;;;;0.00;0.00;;;;;;;18.61;61.92;101402.00;6215598;22;20007;-74
2024/03/21 11:35:40;;;;;;;0.00;0.00;;;;;;;18.80;62.36;101412.28;6242645;22;20429;-73
2024/03/21 11:38:13;;;;;;;0.00;0.00;;;;;;;19.66;60.12;101401.00;6268111;22;20000;-74
2024/03/21 11:40:39;;;;;;;0.00;0.00;;;;;;;20.33;56.59;101413.69;6241652;22;20010;-74
2024/03/21 11:43:06;;;;;;;0.00;0.00;;;;;;;19.81;56.45;101404.69;6239089;22;20007;-73
2024/03/21 11:45:32;;;;;;;0.00;0.00;;;;;;;19.36;56.92;101403.19;6217450;22;20049;-73